Time;durP1;ratioP1;P1;durP2;ratioP2;P2;SDS_P1;SDS_P2;PMS_P1;PMS_P2;Temp;Humidity;BMP_temperature;BMP_pressure;BME280_temperature;BME280_humidity;BME280_pressure;Samples;Min_cycle;Max_cycle;Signal;HPM_P1;HPM_P2
2022/09/26 00:01:27;;;;;;;4.05;2.97;;;13.20;99.90;;;;;;5038683;28;20442;-59
2022/09/26 00:03:56;;;;;;;3.80;2.58;;;13.20;99.90;;;;;;5029244;28;20497;-59
2022/09/26 00:06:22;;;;;;;2.97;2.53;;;13.20;99.90;;;;;;5036122;28;20033;-58
2022/09/26 00:08:49;;;;;;;3.13;2.80;;;13.10;99.90;;;;;;5047385;28;20112;-58
2022/09/26 00:11:18;;;;;;;2.80;2.45;;;13.10;99.90;;;;;;5038676;28;20057;-58
2022/09/26 00:13:44;;;;;;;3.55;2.63;;;13.10;99.90;;;;;;5064905;28;20025;-59
2022/09/26 00:16:11;;;;;;;3.00;2.47;;;13.10;99.90;;;;;;5028869;28;20553;-58
2022/09/26 00:18:36;;;;;;;2.83;2.45;;;13.10;99.90;;;;;;5065956;28;20028;-58
2022/09/26 00:21:08;;;;;;;2.55;2.35;;;13.10;99.90;;;;;;5035351;28;20595;-57
2022/09/26 00:23:34;;;;;;;5.07;2.50;;;13.10;99.90;;;;;;5043563;28;20036;-58
2022/09/26 00:26:00;;;;;;;4.10;2.83;;;13.10;99.90;;;;;;5033109;28;20029;-59
2022/09/26 00:28:26;;;;;;;2.55;2.15;;;13.10;99.90;;;;;;5065479;28;20032;-59
2022/09/26 00:30:52;;;;;;;4.10;2.72;;;13.00;99.90;;;;;;5031512;28;20032;-57
2022/09/26 00:33:18;;;;;;;2.97;2.38;;;13.10;99.90;;;;;;5064538;28;20025;-58
2022/09/26 00:35:50;;;;;;;5.07;2.85;;;13.00;99.90;;;;;;5031512;28;20029;-58
2022/09/26 00:38:16;;;;;;;2.28;2.08;;;13.00;99.90;;;;;;5065719;28;20053;-58
2022/09/26 00:40:42;;;;;;;4.43;2.92;;;13.00;99.90;;;;;;5045383;28;20484;-59
2022/09/26 00:43:53;;;;;;;3.10;2.30;;;13.00;99.90;;;;;;5059123;28;20029;-58
2022/09/26 00:46:28;;;;;;;2.53;2.33;;;13.00;99.90;;;;;;5033828;28;20059;-58
2022/09/26 00:49:14;;;;;;;3.35;2.17;;;12.90;99.90;;;;;;5026081;28;20521;-58
2022/09/26 00:51:45;;;;;;;3.55;2.38;;;12.90;99.90;;;;;;5033244;28;20081;-59
2022/09/26 00:54:14;;;;;;;4.22;2.70;;;12.90;99.90;;;;;;5046856;28;20379;-58
2022/09/26 00:56:42;;;;;;;3.25;2.17;;;12.90;99.90;;;;;;5027322;28;20037;-59
2022/09/26 00:59:15;;;;;;;3.38;2.42;;;12.80;99.90;;;;;;5067709;28;20123;-58
2022/09/26 01:01:41;;;;;;;3.72;2.40;;;12.80;99.90;;;;;;5029075;28;20052;-58
2022/09/26 01:04:08;;;;;;;3.10;2.55;;;12.80;99.90;;;;;;5067507;28;20695;-58
2022/09/26 01:06:34;;;;;;;3.83;2.15;;;12.80;99.90;;;;;;5047193;28;20029;-58
2022/09/26 01:09:06;;;;;;;2.85;2.50;;;12.80;99.90;;;;;;5068216;28;20028;-59
2022/09/26 01:11:36;;;;;;;3.40;2.72;;;12.70;99.90;;;;;;5045816;28;20048;-57
2022/09/26 01:14:03;;;;;;;3.13;2.40;;;12.70;99.90;;;;;;5068778;28;20042;-57
2022/09/26 01:16:30;;;;;;;2.28;2.05;;;12.60;99.90;;;;;;5047264;28;20151;-59
2022/09/26 01:18:56;;;;;;;3.00;2.28;;;12.60;99.90;;;;;;5068164;28;20021;-59
2022/09/26 01:21:46;;;;;;;2.97;1.80;;;12.50;99.90;;;;;;5047449;28;20397;-57
2022/09/26 01:24:37;;;;;;;3.92;2.50;;;12.50;99.90;;;;;;5023405;28;20041;-57
2022/09/26 01:27:34;;;;;;;2.83;2.50;;;12.50;99.90;;;;;;5028956;28;20033;-58
2022/09/26 01:30:10;;;;;;;4.07;1.75;;;12.40;99.90;;;;;;5030918;28;20511;-58
2022/09/26 01:33:06;;;;;;;2.28;2.00;;;12.40;99.90;;;;;;5049132;28;20108;-58
2022/09/26 01:35:50;;;;;;;4.13;2.17;;;12.40;99.90;;;;;;5050062;28;20028;-57
2022/09/26 01:38:29;;;;;;;4.05;2.00;;;12.30;99.90;;;;;;5032596;28;20045;-57
2022/09/26 01:41:27;;;;;;;2.40;2.13;;;12.30;99.90;;;;;;5043432;28;20036;-57
2022/09/26 01:44:14;;;;;;;5.32;2.13;;;12.30;99.90;;;;;;5032533;28;20037;-57
2022/09/26 01:46:54;;;;;;;3.60;2.40;;;12.20;99.90;;;;;;5049595;28;20036;-57
2022/09/26 01:49:27;;;;;;;3.13;2.38;;;12.20;99.90;;;;;;5032593;28;20021;-55
2022/09/26 01:52:26;;;;;;;4.15;1.67;;;12.20;99.90;;;;;;5032525;28;20128;-57
2022/09/26 01:55:10;;;;;;;3.83;2.10;;;12.20;99.90;;;;;;5033665;28;20033;-57
2022/09/26 01:57:51;;;;;;;3.65;2.10;;;12.20;99.90;;;;;;5051004;28;20060;-55
2022/09/26 02:00:17;;;;;;;4.80;2.20;;;12.20;99.90;;;;;;5037219;28;20028;-56
2022/09/26 02:02:46;;;;;;;4.43;2.05;;;12.20;99.90;;;;;;5052053;28;20622;-56
2022/09/26 02:05:27;;;;;;;6.90;2.22;;;12.20;99.90;;;;;;5069955;28;20020;-55
2022/09/26 02:08:42;;;;;;;3.75;2.55;;;12.20;99.90;;;;;;5071599;28;20024;-56
2022/09/26 02:11:15;;;;;;;4.07;2.00;;;12.20;99.90;;;;;;5047381;28;20033;-59
2022/09/26 02:13:54;;;;;;;2.58;1.52;;;12.20;99.90;;;;;;5048981;28;20029;-56
2022/09/26 02:16:45;;;;;;;7.22;2.33;;;12.20;99.90;;;;;;5041832;28;20055;-51
2022/09/26 02:19:19;;;;;;;4.78;2.05;;;12.20;99.90;;;;;;5031326;28;20029;-56
2022/09/26 02:21:45;;;;;;;3.63;1.45;;;12.20;99.90;;;;;;5048196;28;20032;-57
2022/09/26 02:24:11;;;;;;;4.20;1.70;;;12.10;99.90;;;;;;5068327;28;20389;-56
2022/09/26 02:26:37;;;;;;;3.42;1.63;;;12.10;99.90;;;;;;5050430;28;20048;-58
2022/09/26 02:29:03;;;;;;;5.72;2.17;;;12.10;99.90;;;;;;5070965;28;20037;-53
2022/09/26 02:31:37;;;;;;;5.90;1.95;;;12.10;99.90;;;;;;5050188;28;20582;-55
2022/09/26 02:34:03;;;;;;;4.07;2.10;;;12.10;99.90;;;;;;5031726;28;20025;-58
2022/09/26 02:36:32;;;;;;;4.03;1.83;;;12.10;99.90;;;;;;5052745;28;20078;-59
2022/09/26 02:38:58;;;;;;;4.78;2.35;;;12.00;99.90;;;;;;5031507;28;20120;-56
2022/09/26 02:41:28;;;;;;;3.10;1.95;;;12.00;99.90;;;;;;5053338;28;20128;-58
2022/09/26 02:44:04;;;;;;;3.92;1.77;;;12.00;99.90;;;;;;5031040;28;20428;-56
2022/09/26 02:47:02;;;;;;;2.75;2.00;;;12.00;99.90;;;;;;5044991;28;20052;-58
2022/09/26 02:49:58;;;;;;;5.32;2.15;;;11.90;99.90;;;;;;5031402;28;20131;-58
2022/09/26 02:52:48;;;;;;;4.05;1.40;;;12.00;99.90;;;;;;5031506;28;20025;-56
2022/09/26 02:55:32;;;;;;;4.45;1.90;;;12.00;99.90;;;;;;5062856;28;20031;-57
2022/09/26 02:58:21;;;;;;;6.57;1.98;;;11.90;99.90;;;;;;5051155;28;20040;-56
2022/09/26 03:01:15;;;;;;;4.18;1.77;;;11.90;99.90;;;;;;5059568;28;20108;-57
2022/09/26 03:03:49;;;;;;;3.95;1.80;;;11.90;99.90;;;;;;5070026;28;20119;-57
2022/09/26 03:06:18;;;;;;;2.33;1.83;;;11.90;99.90;;;;;;5042296;28;20116;-57
2022/09/26 03:08:47;;;;;;;3.75;1.50;;;11.90;99.90;;;;;;5069337;28;20116;-56
2022/09/26 03:11:18;;;;;;;4.10;1.55;;;11.90;99.90;;;;;;5049166;28;20059;-58
2022/09/26 03:13:44;;;;;;;3.00;1.60;;;11.90;99.90;;;;;;5030932;28;20033;-54
2022/09/26 03:16:11;;;;;;;5.22;1.77;;;11.90;99.90;;;;;;5055733;28;20040;-56
2022/09/26 03:18:48;;;;;;;4.18;2.00;;;11.90;99.90;;;;;;5070148;28;20362;-58
2022/09/26 03:21:14;;;;;;;3.38;1.60;;;11.90;99.90;;;;;;5061323;28;20028;-57
2022/09/26 03:23:40;;;;;;;2.70;1.83;;;11.90;99.90;;;;;;5046058;28;20037;-56
2022/09/26 03:26:11;;;;;;;3.25;1.67;;;11.90;99.90;;;;;;5056848;28;20048;-57
2022/09/26 03:28:37;;;;;;;6.72;2.17;;;11.80;99.90;;;;;;5070187;28;20150;-56
2022/09/26 03:31:02;;;;;;;2.42;1.73;;;11.80;99.90;;;;;;5059689;28;20071;-58
2022/09/26 03:33:28;;;;;;;2.63;1.73;;;11.80;99.90;;;;;;5050893;28;20032;-57
2022/09/26 03:35:53;;;;;;;3.65;2.15;;;11.70;99.90;;;;;;5067719;28;20684;-56
2022/09/26 03:38:19;;;;;;;2.70;1.63;;;11.80;99.90;;;;;;5050724;28;20053;-58
2022/09/26 03:40:45;;;;;;;4.97;1.80;;;11.70;99.90;;;;;;5067467;28;20412;-56
2022/09/26 03:43:11;;;;;;;5.85;2.03;;;11.70;99.90;;;;;;5050602;28;20059;-56
2022/09/26 03:45:37;;;;;;;4.00;1.92;;;11.70;99.90;;;;;;5067425;28;20021;-56
2022/09/26 03:48:05;;;;;;;4.32;1.90;;;11.70;99.90;;;;;;5070057;28;20035;-56
2022/09/26 03:50:32;;;;;;;3.33;1.95;;;11.70;99.90;;;;;;5053993;28;20555;-58
2022/09/26 03:52:58;;;;;;;4.13;2.15;;;11.70;99.90;;;;;;5070047;28;20419;-56
2022/09/26 03:55:24;;;;;;;2.78;2.40;;;11.60;99.90;;;;;;5052834;28;20031;-52
2022/09/26 03:57:49;;;;;;;4.88;2.05;;;11.60;99.90;;;;;;5069880;28;20166;-53
2022/09/26 04:00:15;;;;;;;2.47;1.92;;;11.60;99.90;;;;;;5051691;28;20020;-56
2022/09/26 04:02:40;;;;;;;3.45;1.92;;;11.60;99.90;;;;;;5069644;28;20086;-57
2022/09/26 04:05:06;;;;;;;4.20;2.65;;;11.60;99.90;;;;;;5048875;28;20039;-53
2022/09/26 04:07:32;;;;;;;5.20;2.28;;;11.60;99.90;;;;;;5069658;28;20037;-54
2022/09/26 04:09:57;;;;;;;3.63;1.95;;;11.50;99.90;;;;;;5048751;28;20526;-56
2022/09/26 04:12:22;;;;;;;4.43;2.10;;;11.50;99.90;;;;;;5069651;28;20043;-55
2022/09/26 04:14:48;;;;;;;3.00;2.00;;;11.50;99.90;;;;;;5050036;28;20036;-54
2022/09/26 04:17:13;;;;;;;3.17;2.20;;;11.50;99.90;;;;;;5047749;28;20041;-54
2022/09/26 04:19:39;;;;;;;3.95;2.17;;;11.50;99.90;;;;;;5068681;28;20070;-55
2022/09/26 04:22:07;;;;;;;2.47;1.83;;;11.50;99.90;;;;;;5048109;28;20029;-52
2022/09/26 04:24:32;;;;;;;6.00;1.65;;;11.50;99.90;;;;;;5062249;28;20033;-56
2022/09/26 04:26:59;;;;;;;6.30;2.58;;;11.50;99.90;;;;;;5048081;28;20400;-55
2022/09/26 04:29:26;;;;;;;3.05;2.15;;;11.50;99.90;;;;;;5067531;28;20403;-57
2022/09/26 04:31:51;;;;;;;3.08;1.98;;;11.50;99.90;;;;;;5047996;28;20599;-57
2022/09/26 04:34:17;;;;;;;4.18;1.90;;;11.50;99.90;;;;;;5068548;28;20115;-57
2022/09/26 04:36:43;;;;;;;4.53;2.50;;;11.50;99.90;;;;;;5047807;28;20513;-56
2022/09/26 04:39:09;;;;;;;6.45;3.00;;;11.50;99.90;;;;;;5069419;28;20365;-56
2022/09/26 04:41:35;;;;;;;8.18;4.22;;;11.50;99.90;;;;;;5047977;28;20032;-56
2022/09/26 04:44:01;;;;;;;7.18;4.25;;;11.50;99.90;;;;;;5068569;28;20035;-54
2022/09/26 04:46:28;;;;;;;4.05;2.95;;;11.60;99.90;;;;;;5047922;28;20029;-55
2022/09/26 04:48:55;;;;;;;9.10;3.85;;;11.50;99.90;;;;;;5068434;28;20443;-56
2022/09/26 04:51:23;;;;;;;7.97;3.17;;;11.60;99.90;;;;;;5058471;28;20029;-57
2022/09/26 04:53:50;;;;;;;5.30;3.03;;;11.50;99.90;;;;;;5049274;28;20417;-58
2022/09/26 04:56:17;;;;;;;5.57;2.58;;;11.50;99.90;;;;;;5066374;28;20123;-61
2022/09/26 04:58:44;;;;;;;3.97;2.53;;;11.50;99.90;;;;;;5049181;28;20041;-56
2022/09/26 05:01:12;;;;;;;5.00;2.85;;;11.50;99.90;;;;;;5066419;28;20029;-57
2022/09/26 05:03:38;;;;;;;3.97;2.30;;;11.50;99.90;;;;;;5049026;28;20397;-54
2022/09/26 05:06:07;;;;;;;2.65;2.33;;;11.60;99.90;;;;;;5066321;28;20055;-62
2022/09/26 05:08:37;;;;;;;3.97;2.10;;;11.60;99.90;;;;;;5048323;28;20017;-63
2022/09/26 05:11:02;;;;;;;3.65;2.25;;;11.60;99.90;;;;;;5058928;28;20477;-65
2022/09/26 05:13:28;;;;;;;2.75;2.20;;;11.60;99.90;;;;;;5068287;28;20024;-66
2022/09/26 05:15:54;;;;;;;4.78;2.35;;;11.60;99.90;;;;;;5044268;28;20029;-66
2022/09/26 05:18:25;;;;;;;3.50;2.45;;;11.60;99.90;;;;;;5046967;28;20063;-65
2022/09/26 05:20:51;;;;;;;4.28;2.15;;;11.60;99.90;;;;;;5031642;28;20053;-66
2022/09/26 05:26:21;;;;;;;2.65;2.05;;;11.70;99.90;;;;;;5042654;28;20511;-66
2022/09/26 05:29:03;;;;;;;5.57;2.38;;;11.70;99.90;;;;;;5027122;28;20490;-66
2022/09/26 05:31:31;;;;;;;6.10;2.13;;;11.70;99.90;;;;;;5037614;28;20037;-66
2022/09/26 05:33:57;;;;;;;5.10;2.45;;;11.70;99.90;;;;;;5068314;28;20027;-57
2022/09/26 05:36:24;;;;;;;3.38;1.90;;;11.80;99.90;;;;;;5047200;28;20108;-56
2022/09/26 05:38:50;;;;;;;2.80;2.10;;;11.80;99.90;;;;;;5067802;28;20044;-57
2022/09/26 05:41:16;;;;;;;4.55;2.22;;;11.70;99.90;;;;;;5055820;28;20033;-58
2022/09/26 05:43:42;;;;;;;2.70;2.28;;;11.80;99.90;;;;;;5048888;28;20527;-59
2022/09/26 05:46:09;;;;;;;2.80;1.83;;;11.70;99.90;;;;;;5065784;28;20032;-56
2022/09/26 05:48:36;;;;;;;4.90;1.83;;;11.70;99.90;;;;;;5048638;28;20033;-55
2022/09/26 05:51:08;;;;;;;2.83;2.30;;;11.80;99.90;;;;;;5066118;28;20031;-58
2022/09/26 05:53:34;;;;;;;4.43;2.33;;;11.80;99.90;;;;;;5068580;28;20481;-57
2022/09/26 05:56:00;;;;;;;6.07;2.13;;;12.00;99.90;;;;;;5046912;28;20029;-57
2022/09/26 05:58:33;;;;;;;3.90;1.95;;;12.00;99.90;;;;;;5048446;28;20021;-56
2022/09/26 06:01:05;;;;;;;4.70;2.65;;;12.20;99.90;;;;;;5038487;28;20024;-58
2022/09/26 06:03:34;;;;;;;2.65;2.15;;;12.30;99.90;;;;;;5068152;28;20466;-57
2022/09/26 06:06:05;;;;;;;3.67;1.90;;;12.40;99.90;;;;;;5052459;28;20592;-58
2022/09/26 06:08:31;;;;;;;3.55;2.15;;;12.60;99.90;;;;;;5068178;28;20499;-57
2022/09/26 06:11:02;;;;;;;3.78;2.28;;;12.80;99.90;;;;;;5050140;28;20036;-58
2022/09/26 06:13:28;;;;;;;2.88;2.30;;;12.90;99.90;;;;;;5028334;28;20032;-59
2022/09/26 06:15:53;;;;;;;6.07;2.20;;;13.00;99.90;;;;;;5049833;28;20028;-56
2022/09/26 06:18:19;;;;;;;2.83;2.10;;;13.10;99.90;;;;;;5067843;28;20036;-58
2022/09/26 06:20:45;;;;;;;5.35;2.53;;;13.10;99.90;;;;;;5053577;28;20040;-57
2022/09/26 06:23:10;;;;;;;3.65;2.40;;;13.20;99.90;;;;;;5060270;28;20420;-56
2022/09/26 06:25:36;;;;;;;2.67;1.98;;;13.30;99.90;;;;;;5068736;28;20028;-58
2022/09/26 06:28:01;;;;;;;3.65;2.38;;;13.50;99.90;;;;;;5071737;28;20029;-57
2022/09/26 06:30:27;;;;;;;3.45;2.53;;;14.00;99.90;;;;;;5050648;28;20521;-60
2022/09/26 06:32:53;;;;;;;3.08;2.00;;;15.00;99.90;;;;;;5071390;28;20029;-59
2022/09/26 06:35:21;;;;;;;3.28;1.70;;;15.70;96.10;;;;;;5051821;28;20035;-58
2022/09/26 06:37:47;;;;;;;4.80;1.77;;;15.90;94.90;;;;;;5060961;28;20122;-58
2022/09/26 06:40:14;;;;;;;5.93;1.80;;;16.00;92.70;;;;;;5070817;28;20617;-58
2022/09/26 06:42:39;;;;;;;3.75;1.90;;;16.20;92.70;;;;;;5049686;28;20501;-59
2022/09/26 06:45:07;;;;;;;3.28;1.75;;;16.90;92.10;;;;;;5070497;28;20039;-57
2022/09/26 06:47:32;;;;;;;4.50;1.85;;;17.90;89.10;;;;;;5049694;28;20036;-57
2022/09/26 06:49:58;;;;;;;3.00;1.58;;;19.00;82.70;;;;;;5070462;28;20024;-59
2022/09/26 06:52:25;;;;;;;2.17;1.67;;;19.70;72.80;;;;;;5058320;28;20020;-59
2022/09/26 06:54:54;;;;;;;3.80;1.90;;;20.00;73.40;;;;;;5051410;28;20025;-59
2022/09/26 06:57:20;;;;;;;3.80;1.42;;;20.20;70.40;;;;;;5053237;28;20032;-59
2022/09/26 06:59:45;;;;;;;5.35;1.85;;;20.30;69.40;;;;;;5068851;28;20459;-59
2022/09/26 07:02:11;;;;;;;5.30;1.60;;;20.30;67.60;;;;;;5048784;28;20032;-60
2022/09/26 07:04:36;;;;;;;5.10;1.80;;;20.40;66.00;;;;;;5068331;28;20028;-59
2022/09/26 07:07:02;;;;;;;1.92;1.25;;;20.40;66.70;;;;;;5047991;28;20083;-63
2022/09/26 07:09:27;;;;;;;2.85;1.60;;;20.60;65.80;;;;;;5069969;28;20384;-64
2022/09/26 07:11:53;;;;;;;2.85;1.38;;;20.90;59.00;;;;;;5049347;28;20025;-63
2022/09/26 07:14:19;;;;;;;1.80;1.38;;;20.90;61.30;;;;;;5050698;28;20593;-64
2022/09/26 07:16:46;;;;;;;3.53;1.58;;;21.00;59.90;;;;;;5068062;28;20106;-63
2022/09/26 07:19:12;;;;;;;3.58;1.77;;;21.10;60.70;;;;;;5050824;28;20132;-63
2022/09/26 07:21:38;;;;;;;3.90;2.00;;;21.20;59.00;;;;;;5067565;28;20116;-63
2022/09/26 07:24:04;;;;;;;1.63;1.20;;;21.20;58.10;;;;;;5047104;28;20091;-63
2022/09/26 07:26:29;;;;;;;3.13;1.60;;;21.30;58.80;;;;;;5067720;28;20025;-63
2022/09/26 07:28:54;;;;;;;2.75;1.40;;;21.50;58.40;;;;;;5050955;28;20036;-63
2022/09/26 07:31:22;;;;;;;1.60;1.20;;;21.60;56.30;;;;;;5065641;28;20557;-64
2022/09/26 07:33:47;;;;;;;3.53;1.33;;;21.70;54.50;;;;;;5070061;28;20051;-63
2022/09/26 07:36:13;;;;;;;2.45;1.20;;;21.80;53.90;;;;;;5054332;28;20424;-62
2022/09/26 07:38:38;;;;;;;1.65;1.10;;;21.70;50.90;;;;;;5070185;28;20060;-62
2022/09/26 07:41:09;;;;;;;1.52;1.00;;;21.90;52.40;;;;;;5052811;28;20030;-62
2022/09/26 07:43:35;;;;;;;4.35;1.10;;;22.10;51.70;;;;;;5070147;28;20020;-63
2022/09/26 07:51:31;;;;;;;2.13;0.95;;;22.00;49.00;;;;;;5044492;28;20121;-62
2022/09/26 07:53:56;;;;;;;2.97;1.02;;;22.00;49.10;;;;;;5070036;28;20023;-62
2022/09/26 07:56:22;;;;;;;1.90;0.77;;;22.10;48.10;;;;;;5054607;28;20021;-63
2022/09/26 07:58:47;;;;;;;3.30;0.93;;;22.10;47.60;;;;;;5069619;28;20036;-62
2022/09/26 08:01:15;;;;;;;1.58;0.80;;;22.10;43.90;;;;;;5053080;28;20043;-62
2022/09/26 08:03:43;;;;;;;3.13;1.00;;;22.00;46.30;;;;;;5069756;28;20076;-61
2022/09/26 08:06:09;;;;;;;1.00;0.80;;;22.00;47.10;;;;;;5051581;28;20048;-61
2022/09/26 08:08:35;;;;;;;1.45;1.00;;;21.80;45.40;;;;;;5069713;28;20032;-61
2022/09/26 08:11:02;;;;;;;2.55;1.25;;;21.80;38.50;;;;;;5050555;28;20074;-62
2022/09/26 08:13:29;;;;;;;2.35;1.02;;;21.70;44.10;;;;;;5069633;28;20043;-62
2022/09/26 08:16:00;;;;;;;1.58;1.20;;;21.80;41.40;;;;;;5049583;28;20025;-62
2022/09/26 08:18:25;;;;;;;2.47;1.23;;;21.70;42.10;;;;;;5069588;28;20032;-62
2022/09/26 08:20:50;;;;;;;6.75;1.10;;;21.80;43.60;;;;;;5048972;28;20032;-62
2022/09/26 08:23:16;;;;;;;1.98;1.08;;;21.90;42.70;;;;;;5056064;28;20037;-62
2022/09/26 08:25:43;;;;;;;4.60;1.33;;;22.00;42.60;;;;;;5068601;28;20059;-62
2022/09/26 08:28:12;;;;;;;1.70;0.90;;;22.20;42.40;;;;;;5067382;28;20032;-62
2022/09/26 08:30:43;;;;;;;3.13;0.95;;;22.40;37.90;;;;;;5049403;28;20033;-61
2022/09/26 08:33:11;;;;;;;2.08;1.30;;;22.70;40.10;;;;;;5062416;28;20076;-62
2022/09/26 08:35:40;;;;;;;1.80;1.27;;;22.60;37.70;;;;;;5048020;28;20033;-63
2022/09/26 08:38:07;;;;;;;2.00;1.02;;;22.40;37.80;;;;;;5047885;28;20095;-62
2022/09/26 08:40:58;;;;;;;2.35;1.50;;;22.00;36.70;;;;;;5029123;28;20490;-62
2022/09/26 08:44:07;;;;;;;4.95;1.60;;;21.50;33.40;;;;;;5028305;28;20635;-63
2022/09/26 08:46:54;;;;;;;2.15;1.05;;;21.10;34.50;;;;;;5039376;28;20028;-62
2022/09/26 08:49:40;;;;;;;2.08;1.50;;;20.70;35.40;;;;;;5069007;28;20020;-62
2022/09/26 08:52:26;;;;;;;4.32;1.75;;;20.40;35.60;;;;;;5048466;28;20304;-61
2022/09/26 08:54:55;;;;;;;3.75;1.50;;;20.30;35.80;;;;;;5027856;28;20033;-62
2022/09/26 08:57:48;;;;;;;3.45;1.77;;;20.20;37.00;;;;;;5052798;28;20052;-62
2022/09/26 09:00:20;;;;;;;1.98;1.25;;;20.00;37.00;;;;;;5029092;28;20080;-62
2022/09/26 09:03:04;;;;;;;2.75;1.90;;;19.70;37.90;;;;;;5041561;28;20067;-62
2022/09/26 09:05:38;;;;;;;1.83;1.23;;;19.60;38.60;;;;;;5029006;28;20032;-62
2022/09/26 09:08:11;;;;;;;2.83;1.50;;;19.70;38.70;;;;;;5045057;28;20131;-62
2022/09/26 09:11:02;;;;;;;2.03;1.20;;;19.70;38.20;;;;;;5028971;28;20037;-62
2022/09/26 09:13:47;;;;;;;1.77;1.40;;;19.70;38.20;;;;;;5028567;28;20053;-62
2022/09/26 09:16:37;;;;;;;2.38;1.70;;;19.80;38.10;;;;;;5031824;28;20034;-62
2022/09/26 09:19:17;;;;;;;3.53;1.77;;;19.80;37.80;;;;;;5068284;28;20024;-62
2022/09/26 09:22:00;;;;;;;2.03;1.17;;;19.70;37.70;;;;;;5039628;28;20020;-62
2022/09/26 09:24:59;;;;;;;3.45;1.20;;;19.90;37.20;;;;;;5043556;28;20520;-54
2022/09/26 09:27:54;;;;;;;1.33;0.90;;;20.00;35.50;;;;;;5050874;28;20028;-52
2022/09/26 09:30:41;;;;;;;3.22;1.10;;;20.10;34.20;;;;;;5029659;28;20061;-54
2022/09/26 09:33:21;;;;;;;3.70;1.17;;;20.30;34.30;;;;;;5046729;28;20033;-52
2022/09/26 09:35:51;;;;;;;1.48;0.93;;;20.30;33.50;;;;;;5068231;28;20056;-56
2022/09/26 09:38:21;;;;;;;4.18;1.40;;;20.40;33.40;;;;;;5045835;28;20068;-51
2022/09/26 09:41:12;;;;;;;2.00;1.08;;;20.50;32.70;;;;;;5068832;28;20465;-56
2022/09/26 09:43:53;;;;;;;2.13;1.00;;;20.70;32.30;;;;;;5030294;28;20080;-55
2022/09/26 09:46:29;;;;;;;3.50;0.98;;;20.70;32.80;;;;;;5032068;28;20025;-55
2022/09/26 09:49:01;;;;;;;1.65;0.95;;;20.80;32.30;;;;;;5068566;28;20150;-52
2022/09/26 09:51:33;;;;;;;2.70;1.20;;;20.80;32.10;;;;;;5030171;28;20017;-56
2022/09/26 09:54:31;;;;;;;1.75;0.85;;;20.70;30.80;;;;;;5049331;28;20021;-54
2022/09/26 09:57:32;;;;;;;1.05;0.80;;;20.80;30.50;;;;;;5062594;28;20477;-51
2022/09/26 10:00:07;;;;;;;1.88;0.85;;;20.80;29.80;;;;;;5032362;28;20039;-53
2022/09/26 10:02:53;;;;;;;1.83;0.98;;;20.90;29.70;;;;;;5042606;28;20036;-53
2022/09/26 10:05:43;;;;;;;1.15;0.85;;;20.80;29.90;;;;;;5032404;28;20041;-50
2022/09/26 10:08:16;;;;;;;3.72;0.80;;;20.80;29.80;;;;;;5047421;28;20029;-51
2022/09/26 10:11:27;;;;;;;1.00;0.80;;;20.80;30.00;;;;;;5032138;28;20505;-53
2022/09/26 10:13:55;;;;;;;3.65;0.98;;;20.60;28.60;;;;;;5031959;28;20370;-55
2022/09/26 10:16:22;;;;;;;2.13;0.88;;;20.30;29.10;;;;;;5069360;28;20047;-52
2022/09/26 10:19:02;;;;;;;5.45;1.08;;;20.10;29.20;;;;;;5071716;28;20706;-53
2022/09/26 10:21:38;;;;;;;1.92;0.75;;;20.00;29.90;;;;;;5032869;28;20438;-55
2022/09/26 10:24:05;;;;;;;1.02;0.68;;;19.90;29.60;;;;;;5059969;28;20111;-52
2022/09/26 10:26:38;;;;;;;2.65;0.65;;;19.70;29.50;;;;;;5053060;28;20378;-55
2022/09/26 10:29:22;;;;;;;1.63;0.82;;;19.60;30.10;;;;;;5071720;28;20052;-50
2022/09/26 10:31:55;;;;;;;1.90;0.80;;;19.60;29.00;;;;;;5040368;28;20036;-52
2022/09/26 10:34:26;;;;;;;1.50;0.73;;;19.50;29.40;;;;;;5071570;28;20526;-51
2022/09/26 10:36:52;;;;;;;1.52;0.65;;;19.40;29.40;;;;;;5039739;28;20045;-52
2022/09/26 10:42:19;;;;;;;2.15;0.68;;;19.10;29.40;;;;;;5044332;28;20146;-53
2022/09/26 10:44:46;;;;;;;1.83;0.75;;;19.10;29.60;;;;;;5031339;28;20103;-50
2022/09/26 10:47:16;;;;;;;1.27;0.82;;;19.20;30.00;;;;;;5067070;28;20377;-52
2022/09/26 10:49:56;;;;;;;2.38;0.85;;;19.10;29.80;;;;;;5051048;28;20082;-48
2022/09/26 10:52:27;;;;;;;3.10;0.88;;;19.10;30.70;;;;;;5048011;28;20758;-47
2022/09/26 10:54:56;;;;;;;2.50;1.05;;;19.20;31.70;;;;;;5051243;28;20132;-44
2022/09/26 10:57:28;;;;;;;2.78;0.80;;;19.30;31.60;;;;;;5068908;28;20499;-49
2022/09/26 10:59:57;;;;;;;2.20;0.88;;;19.40;31.10;;;;;;5029902;28;20048;-47
2022/09/26 11:02:25;;;;;;;1.48;0.80;;;19.40;31.50;;;;;;5068568;28;20424;-49
2022/09/26 11:07:43;;;;;;;1.38;0.88;;;19.50;30.90;;;;;;5052102;28;20617;-48
2022/09/26 11:10:13;;;;;;;2.05;0.70;;;19.50;30.90;;;;;;5051082;28;20099;-54
2022/09/26 11:12:55;;;;;;;3.85;0.98;;;19.50;31.20;;;;;;5055605;28;20037;-51
2022/09/26 11:15:22;;;;;;;0.70;0.63;;;19.40;30.70;;;;;;5031087;28;20031;-50
2022/09/26 11:17:50;;;;;;;1.25;0.70;;;19.40;30.50;;;;;;5055860;28;20571;-46
2022/09/26 11:20:19;;;;;;;0.60;0.60;;;19.20;30.50;;;;;;5070319;28;20064;-48
2022/09/26 11:23:00;;;;;;;1.88;0.82;;;19.20;30.10;;;;;;5047732;28;20036;-47
2022/09/26 11:25:30;;;;;;;1.60;0.68;;;19.20;29.00;;;;;;5070689;28;20408;-50
2022/09/26 11:28:09;;;;;;;1.73;0.80;;;19.30;29.40;;;;;;5048441;28;20123;-52
2022/09/26 11:30:40;;;;;;;2.05;0.93;;;19.40;29.40;;;;;;5030679;28;20038;-47
2022/09/26 11:33:11;;;;;;;1.63;1.02;;;19.60;29.50;;;;;;5043027;28;20087;-50
2022/09/26 11:36:01;;;;;;;0.95;0.80;;;19.60;28.50;;;;;;5030556;28;20037;-47
2022/09/26 11:38:37;;;;;;;1.75;0.90;;;19.70;28.30;;;;;;5049757;28;20048;-53
2022/09/26 11:41:37;;;;;;;1.35;0.73;;;19.70;28.10;;;;;;5030409;28;20041;-52
2022/09/26 11:44:26;;;;;;;0.98;0.50;;;19.70;27.20;;;;;;5030289;28;20544;-53
2022/09/26 11:47:23;;;;;;;2.42;1.15;;;19.70;28.30;;;;;;5035762;28;20031;-50
2022/09/26 11:50:20;;;;;;;1.50;0.60;;;19.60;27.30;;;;;;5038414;28;20124;-48
2022/09/26 11:52:58;;;;;;;0.60;0.60;;;19.60;26.60;;;;;;5046634;28;20120;-50
2022/09/26 11:55:54;;;;;;;2.17;0.70;;;19.50;26.20;;;;;;5029317;28;20033;-50
2022/09/26 11:58:24;;;;;;;;;;;19.40;26.50;;;;;;5043642;28;20492;-52
2022/09/26 12:01:06;;;;;;;1.40;0.88;;;19.40;27.70;;;;;;5062587;28;20395;-47
2022/09/26 12:03:59;;;;;;;1.42;0.60;;;19.40;28.10;;;;;;5044442;28;20051;-49
2022/09/26 12:06:33;;;;;;;2.03;0.90;;;19.40;27.40;;;;;;5028823;28;20022;-48
2022/09/26 12:09:22;;;;;;;1.75;0.60;;;19.50;27.80;;;;;;5029021;28;20041;-47
2022/09/26 12:12:16;;;;;;;1.20;0.88;;;19.40;26.10;;;;;;5031783;28;20143;-48
2022/09/26 12:15:01;;;;;;;1.13;0.47;;;19.40;27.00;;;;;;5049070;28;20075;-50
2022/09/26 12:17:58;;;;;;;1.20;0.60;;;19.30;27.50;;;;;;5042016;28;20497;-48
2022/09/26 12:20:39;;;;;;;1.35;0.70;;;19.10;28.20;;;;;;5028584;28;20025;-52
2022/09/26 12:23:31;;;;;;;1.48;0.60;;;19.00;28.90;;;;;;5049075;28;20033;-49
2022/09/26 12:26:13;;;;;;;0.43;0.40;;;18.90;28.40;;;;;;5040135;28;20029;-46
2022/09/26 12:28:56;;;;;;;2.05;0.82;;;18.70;28.70;;;;;;5044036;28;20397;-53
2022/09/26 12:32:19;;;;;;;1.52;0.70;;;18.50;28.70;;;;;;5028252;28;20105;-48
2022/09/26 12:34:57;;;;;;;1.10;0.60;;;18.40;31.20;;;;;;5025541;28;20052;-46
2022/09/26 12:37:57;;;;;;;0.80;0.52;;;18.30;30.90;;;;;;5010052;28;20049;-48
2022/09/26 12:40:30;;;;;;;0.88;0.52;;;18.10;31.30;;;;;;5023277;28;20171;-47
2022/09/26 12:43:03;;;;;;;0.88;0.77;;;18.00;32.10;;;;;;5048460;28;20123;-52
2022/09/26 12:45:47;;;;;;;0.57;0.57;;;18.00;31.70;;;;;;5048039;28;20036;-52
2022/09/26 12:48:44;;;;;;;2.00;0.43;;;17.90;31.40;;;;;;5039517;28;20029;-47
2022/09/26 12:51:23;;;;;;;;;;;17.90;31.20;;;;;;5027287;28;20031;-49
2022/09/26 12:54:12;;;;;;;1.73;0.60;;;17.90;31.90;;;;;;5046611;28;19920;-53
2022/09/26 12:56:48;;;;;;;1.77;0.73;;;17.80;32.10;;;;;;5027578;28;20591;-47
2022/09/26 12:59:53;;;;;;;3.55;0.63;;;17.80;35.10;;;;;;5028075;28;20026;-47
2022/09/26 13:02:45;;;;;;;1.00;0.77;;;17.80;31.60;;;;;;5038255;28;20048;-51
2022/09/26 13:05:29;;;;;;;1.27;0.60;;;17.80;31.50;;;;;;5047896;28;20086;-47
2022/09/26 13:08:23;;;;;;;0.68;0.57;;;17.80;32.50;;;;;;5065028;28;20027;-51
2022/09/26 13:11:02;;;;;;;0.60;0.60;;;17.90;32.60;;;;;;5027755;28;20051;-46
2022/09/26 13:13:38;;;;;;;0.80;0.60;;;18.00;30.60;;;;;;5040623;28;20090;-48
2022/09/26 13:16:32;;;;;;;2.28;0.68;;;18.10;30.80;;;;;;5027879;28;20124;-51
2022/09/26 13:19:04;;;;;;;1.05;0.47;;;18.10;30.70;;;;;;5044565;28;20076;-53
2022/09/26 13:21:58;;;;;;;1.00;0.70;;;18.20;30.00;;;;;;5027971;28;20199;-48
2022/09/26 13:24:31;;;;;;;1.20;0.63;;;18.30;31.10;;;;;;5021713;28;20091;-50
2022/09/26 13:27:22;;;;;;;0.80;0.45;;;18.40;29.70;;;;;;5027111;28;20030;-47
2022/09/26 13:29:59;;;;;;;0.80;0.40;;;18.50;29.40;;;;;;5046449;28;20037;-46
2022/09/26 13:32:27;;;;;;;1.02;0.70;;;18.50;29.80;;;;;;5035001;28;20029;-44
2022/09/26 13:35:03;;;;;;;2.50;0.90;;;18.60;29.50;;;;;;5051648;28;20051;-51
2022/09/26 13:37:35;;;;;;;;;;;18.60;29.30;;;;;;5039565;28;20041;-50